Terminal Aerodrome Forecast
Issued by NWS

Home | Current Version | Previous Version | Text Only | Print | Product List | Glossary On
Versions: 1 2 3 4 5 6 7 8 9 10 11 12 13 14 15 16 17 18 19 20 21 22 23 24 25 26 27 28 29 30 31 32 33 34
708
FTUS43 KDVN 261510 AAC
TAFCID
TAF AMD
KCID 261510Z 2615/2712 07012KT P6SM BKN012
      TEMPO 2615/2618 5SM BR OVC006
     FM261800 06013KT P6SM SCT025 BKN120
     FM270300 08015G22KT P6SM BKN025
     FM271000 08017G25KT P6SM -RA OVC015=

USA.gov is the U.S. government's official web portal to all federal, state and local government web resources and services.